sensor_id;sensor_type;location;lat;lon;timestamp;pressure;altitude;pressure_sealevel;temperature;humidity
62057;BME280;48016;50.284;18.860;2023-09-12T00:00:06;97928.48;;;17.89;78.44
62057;BME280;48016;50.284;18.860;2023-09-12T00:02:53;97928.89;;;17.86;78.48
62057;BME280;48016;50.284;18.860;2023-09-12T00:05:19;97926.30;;;17.82;78.56
62057;BME280;48016;50.284;18.860;2023-09-12T00:07:46;97926.55;;;17.81;78.70
62057;BME280;48016;50.284;18.860;2023-09-12T00:10:13;97926.53;;;17.80;78.92
62057;BME280;48016;50.284;18.860;2023-09-12T00:12:39;97921.48;;;17.78;78.92
62057;BME280;48016;50.284;18.860;2023-09-12T00:15:06;97917.91;;;17.75;79.15
62057;BME280;48016;50.284;18.860;2023-09-12T00:17:33;97917.68;;;17.74;79.09
62057;BME280;48016;50.284;18.860;2023-09-12T00:20:00;97917.37;;;17.71;79.34
62057;BME280;48016;50.284;18.860;2023-09-12T00:22:27;97914.70;;;17.71;79.31
62057;BME280;48016;50.284;18.860;2023-09-12T00:24:53;97920.23;;;17.70;79.39
62057;BME280;48016;50.284;18.860;2023-09-12T00:27:20;97916.55;;;17.70;79.63
62057;BME280;48016;50.284;18.860;2023-09-12T00:29:46;97919.31;;;17.70;79.86
62057;BME280;48016;50.284;18.860;2023-09-12T00:32:13;97922.69;;;17.70;79.91
62057;BME280;48016;50.284;18.860;2023-09-12T00:34:40;97921.95;;;17.69;79.89
62057;BME280;48016;50.284;18.860;2023-09-12T00:37:06;97920.59;;;17.69;80.01
62057;BME280;48016;50.284;18.860;2023-09-12T00:39:33;97919.92;;;17.69;80.05
62057;BME280;48016;50.284;18.860;2023-09-12T00:41:59;97918.83;;;17.69;80.23
62057;BME280;48016;50.284;18.860;2023-09-12T00:44:26;97919.67;;;17.69;80.33
62057;BME280;48016;50.284;18.860;2023-09-12T00:46:54;97918.78;;;17.67;80.56
62057;BME280;48016;50.284;18.860;2023-09-12T00:49:21;97918.98;;;17.65;80.43
62057;BME280;48016;50.284;18.860;2023-09-12T00:51:49;97920.23;;;17.63;80.62
62057;BME280;48016;50.284;18.860;2023-09-12T00:54:17;97924.09;;;17.62;80.93
62057;BME280;48016;50.284;18.860;2023-09-12T00:56:45;97923.64;;;17.59;81.09
62057;BME280;48016;50.284;18.860;2023-09-12T00:59:13;97923.52;;;17.58;81.39
62057;BME280;48016;50.284;18.860;2023-09-12T01:01:40;97925.05;;;17.58;81.29
62057;BME280;48016;50.284;18.860;2023-09-12T01:04:07;97924.54;;;17.58;81.45
62057;BME280;48016;50.284;18.860;2023-09-12T01:06:34;97923.93;;;17.59;81.53
62057;BME280;48016;50.284;18.860;2023-09-12T01:09:01;97920.52;;;17.58;81.42
62057;BME280;48016;50.284;18.860;2023-09-12T01:11:28;97918.97;;;17.56;81.54
62057;BME280;48016;50.284;18.860;2023-09-12T01:13:55;97920.81;;;17.54;81.52
62057;BME280;48016;50.284;18.860;2023-09-12T01:16:21;97922.48;;;17.54;81.55
62057;BME280;48016;50.284;18.860;2023-09-12T01:18:49;97920.52;;;17.53;81.50
62057;BME280;48016;50.284;18.860;2023-09-12T01:29:33;97911.79;;;17.41;82.33
62057;BME280;48016;50.284;18.860;2023-09-12T01:32:03;97915.70;;;17.39;82.20
62057;BME280;48016;50.284;18.860;2023-09-12T01:34:30;97916.23;;;17.36;82.15
62057;BME280;48016;50.284;18.860;2023-09-12T01:36:56;97917.39;;;17.33;82.30
62057;BME280;48016;50.284;18.860;2023-09-12T01:39:23;97917.98;;;17.31;83.08
62057;BME280;48016;50.284;18.860;2023-09-12T01:41:51;97925.14;;;17.28;82.71
62057;BME280;48016;50.284;18.860;2023-09-12T01:44:20;97927.79;;;17.25;82.83
62057;BME280;48016;50.284;18.860;2023-09-12T01:46:51;97929.17;;;17.22;82.95
62057;BME280;48016;50.284;18.860;2023-09-12T01:49:22;97929.83;;;17.19;83.09
62057;BME280;48016;50.284;18.860;2023-09-12T01:51:50;97927.46;;;17.17;82.95
62057;BME280;48016;50.284;18.860;2023-09-12T01:54:19;97929.52;;;17.16;83.22
62057;BME280;48016;50.284;18.860;2023-09-12T01:56:47;97921.79;;;17.14;83.20
62057;BME280;48016;50.284;18.860;2023-09-12T01:59:14;97921.17;;;17.12;83.57
62057;BME280;48016;50.284;18.860;2023-09-12T02:01:41;97922.33;;;17.12;83.52
62057;BME280;48016;50.284;18.860;2023-09-12T02:04:08;97920.88;;;17.11;83.43
62057;BME280;48016;50.284;18.860;2023-09-12T02:06:35;97924.00;;;17.08;83.37
62057;BME280;48016;50.284;18.860;2023-09-12T02:09:02;97921.94;;;17.04;83.59
62057;BME280;48016;50.284;18.860;2023-09-12T02:11:29;97918.79;;;17.01;83.74
62057;BME280;48016;50.284;18.860;2023-09-12T02:13:56;97921.02;;;16.98;83.77
62057;BME280;48016;50.284;18.860;2023-09-12T02:16:22;97922.30;;;16.96;83.86
62057;BME280;48016;50.284;18.860;2023-09-12T02:18:50;97920.08;;;16.95;84.09
62057;BME280;48016;50.284;18.860;2023-09-12T02:21:16;97920.88;;;16.94;84.15
62057;BME280;48016;50.284;18.860;2023-09-12T02:23:43;97919.77;;;16.92;84.40
62057;BME280;48016;50.284;18.860;2023-09-12T02:26:10;97918.42;;;16.90;84.53
62057;BME280;48016;50.284;18.860;2023-09-12T02:28:36;97916.85;;;16.87;84.55
62057;BME280;48016;50.284;18.860;2023-09-12T02:31:03;97917.99;;;16.85;84.64
62057;BME280;48016;50.284;18.860;2023-09-12T02:33:31;97918.38;;;16.85;84.89
62057;BME280;48016;50.284;18.860;2023-09-12T02:35:57;97918.54;;;16.85;85.16
62057;BME280;48016;50.284;18.860;2023-09-12T02:38:24;97917.63;;;16.87;84.92
62057;BME280;48016;50.284;18.860;2023-09-12T02:40:50;97921.92;;;16.87;85.13
62057;BME280;48016;50.284;18.860;2023-09-12T02:43:17;97917.85;;;16.87;84.95
62057;BME280;48016;50.284;18.860;2023-09-12T02:45:44;97925.15;;;16.88;85.32
62057;BME280;48016;50.284;18.860;2023-09-12T02:48:10;97920.75;;;16.89;85.27
62057;BME280;48016;50.284;18.860;2023-09-12T02:50:37;97919.86;;;16.89;85.19
62057;BME280;48016;50.284;18.860;2023-09-12T02:53:03;97920.13;;;16.90;85.26
62057;BME280;48016;50.284;18.860;2023-09-12T02:55:31;97921.38;;;16.90;85.28
62057;BME280;48016;50.284;18.860;2023-09-12T02:57:57;97923.02;;;16.90;85.31
62057;BME280;48016;50.284;18.860;2023-09-12T03:00:24;97922.65;;;16.89;85.38
62057;BME280;48016;50.284;18.860;2023-09-12T03:02:51;97925.98;;;16.89;85.23
62057;BME280;48016;50.284;18.860;2023-09-12T03:05:17;97925.16;;;16.87;85.35
62057;BME280;48016;50.284;18.860;2023-09-12T03:07:44;97924.86;;;16.86;85.65
62057;BME280;48016;50.284;18.860;2023-09-12T03:10:11;97924.86;;;16.85;85.53
62057;BME280;48016;50.284;18.860;2023-09-12T03:12:37;97922.90;;;16.85;85.44
62057;BME280;48016;50.284;18.860;2023-09-12T03:15:04;97926.62;;;16.85;85.43
62057;BME280;48016;50.284;18.860;2023-09-12T03:17:32;97923.59;;;16.84;85.67
62057;BME280;48016;50.284;18.860;2023-09-12T03:19:59;97928.34;;;16.83;85.60
62057;BME280;48016;50.284;18.860;2023-09-12T03:22:26;97925.31;;;16.85;85.61
62057;BME280;48016;50.284;18.860;2023-09-12T03:24:53;97927.02;;;16.84;85.93
62057;BME280;48016;50.284;18.860;2023-09-12T03:27:19;97924.59;;;16.83;85.65
62057;BME280;48016;50.284;18.860;2023-09-12T03:29:47;97923.38;;;16.81;85.64
62057;BME280;48016;50.284;18.860;2023-09-12T03:32:14;97921.67;;;16.81;85.72
62057;BME280;48016;50.284;18.860;2023-09-12T03:34:40;97920.05;;;16.81;85.80
62057;BME280;48016;50.284;18.860;2023-09-12T03:37:07;97924.61;;;16.82;85.84
62057;BME280;48016;50.284;18.860;2023-09-12T03:39:34;97922.28;;;16.81;85.90
62057;BME280;48016;50.284;18.860;2023-09-12T03:42:01;97922.34;;;16.81;85.93
62057;BME280;48016;50.284;18.860;2023-09-12T03:44:28;97919.77;;;16.81;86.10
62057;BME280;48016;50.284;18.860;2023-09-12T03:46:54;97917.52;;;16.81;85.99
62057;BME280;48016;50.284;18.860;2023-09-12T03:49:22;97922.42;;;16.82;86.24
62057;BME280;48016;50.284;18.860;2023-09-12T03:51:48;97926.56;;;16.82;86.27
62057;BME280;48016;50.284;18.860;2023-09-12T03:54:15;97926.95;;;16.82;86.07
62057;BME280;48016;50.284;18.860;2023-09-12T03:56:42;97926.53;;;16.82;86.08
62057;BME280;48016;50.284;18.860;2023-09-12T03:59:08;97924.27;;;16.80;86.07
62057;BME280;48016;50.284;18.860;2023-09-12T04:01:36;97926.47;;;16.79;86.18
62057;BME280;48016;50.284;18.860;2023-09-12T04:04:03;97927.54;;;16.80;86.16
62057;BME280;48016;50.284;18.860;2023-09-12T04:06:30;97928.02;;;16.81;86.13
62057;BME280;48016;50.284;18.860;2023-09-12T04:08:56;97927.09;;;16.81;86.07
62057;BME280;48016;50.284;18.860;2023-09-12T04:11:23;97928.77;;;16.81;85.98
62057;BME280;48016;50.284;18.860;2023-09-12T04:13:50;97928.28;;;16.81;86.09
62057;BME280;48016;50.284;18.860;2023-09-12T04:16:16;97928.33;;;16.79;85.93
62057;BME280;48016;50.284;18.860;2023-09-12T04:18:44;97928.12;;;16.78;86.04
62057;BME280;48016;50.284;18.860;2023-09-12T04:21:10;97921.59;;;16.77;85.94
62057;BME280;48016;50.284;18.860;2023-09-12T04:23:37;97923.89;;;16.77;85.85
62057;BME280;48016;50.284;18.860;2023-09-12T04:26:04;97922.65;;;16.76;86.07
62057;BME280;48016;50.284;18.860;2023-09-12T04:28:31;97926.80;;;16.75;86.12
62057;BME280;48016;50.284;18.860;2023-09-12T04:31:04;97925.27;;;16.76;86.06
62057;BME280;48016;50.284;18.860;2023-09-12T04:33:30;97930.07;;;16.76;86.01
62057;BME280;48016;50.284;18.860;2023-09-12T04:36:00;97934.81;;;16.77;85.97
62057;BME280;48016;50.284;18.860;2023-09-12T04:38:27;97935.63;;;16.80;86.14
62057;BME280;48016;50.284;18.860;2023-09-12T04:40:59;97934.64;;;16.85;86.17
62057;BME280;48016;50.284;18.860;2023-09-12T04:43:29;97933.02;;;16.90;86.03
62057;BME280;48016;50.284;18.860;2023-09-12T04:45:56;97935.52;;;16.95;85.89
62057;BME280;48016;50.284;18.860;2023-09-12T04:48:22;97933.10;;;16.99;86.12
62057;BME280;48016;50.284;18.860;2023-09-12T04:50:49;97934.63;;;17.04;86.02
62057;BME280;48016;50.284;18.860;2023-09-12T04:53:16;97936.21;;;17.09;85.97
62057;BME280;48016;50.284;18.860;2023-09-12T04:55:43;97939.06;;;17.14;86.03
62057;BME280;48016;50.284;18.860;2023-09-12T04:58:09;97941.27;;;17.17;85.94
62057;BME280;48016;50.284;18.860;2023-09-12T05:00:39;97941.48;;;17.21;85.93
62057;BME280;48016;50.284;18.860;2023-09-12T05:03:06;97945.17;;;17.24;86.01
62057;BME280;48016;50.284;18.860;2023-09-12T05:05:34;97947.52;;;17.27;85.85
62057;BME280;48016;50.284;18.860;2023-09-12T05:08:03;97946.96;;;17.33;85.89
62057;BME280;48016;50.284;18.860;2023-09-12T05:10:30;97953.35;;;17.40;85.98
62057;BME280;48016;50.284;18.860;2023-09-12T05:12:57;97950.91;;;17.48;85.80
62057;BME280;48016;50.284;18.860;2023-09-12T05:15:24;97955.12;;;17.58;85.59
62057;BME280;48016;50.284;18.860;2023-09-12T05:17:50;97954.61;;;17.68;85.63
62057;BME280;48016;50.284;18.860;2023-09-12T05:20:17;97954.13;;;17.75;85.38
62057;BME280;48016;50.284;18.860;2023-09-12T05:22:44;97953.98;;;17.82;85.40
62057;BME280;48016;50.284;18.860;2023-09-12T05:25:10;97955.23;;;17.91;85.36
62057;BME280;48016;50.284;18.860;2023-09-12T05:27:37;97952.87;;;18.01;85.21
62057;BME280;48016;50.284;18.860;2023-09-12T05:30:04;97954.88;;;18.10;85.21
62057;BME280;48016;50.284;18.860;2023-09-12T05:32:31;97953.20;;;18.20;84.94
62057;BME280;48016;50.284;18.860;2023-09-12T05:34:58;97960.80;;;18.33;84.82
62057;BME280;48016;50.284;18.860;2023-09-12T05:37:24;97957.75;;;18.53;84.59
62057;BME280;48016;50.284;18.860;2023-09-12T05:39:51;97960.27;;;18.80;84.37
62057;BME280;48016;50.284;18.860;2023-09-12T05:42:18;97957.91;;;19.11;84.01
62057;BME280;48016;50.284;18.860;2023-09-12T05:44:48;97959.02;;;19.32;83.34
62057;BME280;48016;50.284;18.860;2023-09-12T05:47:16;97962.14;;;19.51;82.99
62057;BME280;48016;50.284;18.860;2023-09-12T05:49:42;97963.35;;;19.70;82.47
62057;BME280;48016;50.284;18.860;2023-09-12T05:52:09;97962.52;;;19.87;82.21
62057;BME280;48016;50.284;18.860;2023-09-12T05:54:38;97965.13;;;19.96;81.55
62057;BME280;48016;50.284;18.860;2023-09-12T05:57:04;97968.08;;;20.10;81.13
62057;BME280;48016;50.284;18.860;2023-09-12T05:59:31;97966.39;;;20.27;80.48
62057;BME280;48016;50.284;18.860;2023-09-12T06:01:58;97962.64;;;20.34;80.44
62057;BME280;48016;50.284;18.860;2023-09-12T06:04:24;97968.95;;;20.54;79.99
62057;BME280;48016;50.284;18.860;2023-09-12T06:06:51;97971.86;;;20.72;79.68
62057;BME280;48016;50.284;18.860;2023-09-12T06:09:18;97972.88;;;20.90;79.06
62057;BME280;48016;50.284;18.860;2023-09-12T06:11:45;97971.50;;;20.94;77.99
62057;BME280;48016;50.284;18.860;2023-09-12T06:14:11;97975.77;;;21.13;77.60
62057;BME280;48016;50.284;18.860;2023-09-12T06:16:38;97969.52;;;21.28;76.89
62057;BME280;48016;50.284;18.860;2023-09-12T06:19:05;97970.02;;;21.40;76.12
62057;BME280;48016;50.284;18.860;2023-09-12T06:21:31;97967.70;;;21.55;75.45
62057;BME280;48016;50.284;18.860;2023-09-12T06:24:12;97972.29;;;21.69;75.12
62057;BME280;48016;50.284;18.860;2023-09-12T06:26:40;97973.77;;;21.85;74.93
62057;BME280;48016;50.284;18.860;2023-09-12T06:29:06;97976.17;;;21.99;74.86
62057;BME280;48016;50.284;18.860;2023-09-12T06:31:34;97969.70;;;22.14;72.38
62057;BME280;48016;50.284;18.860;2023-09-12T06:34:02;97967.77;;;22.30;71.86
62057;BME280;48016;50.284;18.860;2023-09-12T06:36:29;97971.10;;;22.52;72.11
62057;BME280;48016;50.284;18.860;2023-09-12T06:38:56;97969.93;;;22.75;71.14
62057;BME280;48016;50.284;18.860;2023-09-12T06:41:23;97967.64;;;22.96;70.63
62057;BME280;48016;50.284;18.860;2023-09-12T06:43:51;97968.77;;;23.20;69.88
62057;BME280;48016;50.284;18.860;2023-09-12T06:46:18;97975.73;;;23.43;68.89
62057;BME280;48016;50.284;18.860;2023-09-12T06:48:45;97974.67;;;23.67;68.01
62057;BME280;48016;50.284;18.860;2023-09-12T06:51:12;97973.29;;;23.87;66.49
62057;BME280;48016;50.284;18.860;2023-09-12T06:53:39;97975.80;;;24.06;66.62
62057;BME280;48016;50.284;18.860;2023-09-12T06:56:05;97977.36;;;24.22;66.96
62057;BME280;48016;50.284;18.860;2023-09-12T06:58:33;97973.65;;;24.43;65.62
62057;BME280;48016;50.284;18.860;2023-09-12T07:01:04;97973.52;;;24.64;65.48
62057;BME280;48016;50.284;18.860;2023-09-12T07:03:33;97973.05;;;24.87;64.74
62057;BME280;48016;50.284;18.860;2023-09-12T07:06:00;97978.11;;;25.06;64.09
62057;BME280;48016;50.284;18.860;2023-09-12T07:08:30;97979.81;;;25.20;62.64
62057;BME280;48016;50.284;18.860;2023-09-12T07:10:57;97980.33;;;25.35;60.61
62057;BME280;48016;50.284;18.860;2023-09-12T07:13:26;97978.92;;;25.54;61.09
62057;BME280;48016;50.284;18.860;2023-09-12T07:15:52;97974.88;;;25.73;60.73
62057;BME280;48016;50.284;18.860;2023-09-12T07:18:19;97972.95;;;25.92;61.15
62057;BME280;48016;50.284;18.860;2023-09-12T07:20:57;97971.38;;;26.12;58.87
62057;BME280;48016;50.284;18.860;2023-09-12T07:23:23;97968.33;;;26.30;57.50
62057;BME280;48016;50.284;18.860;2023-09-12T07:25:50;97970.60;;;26.49;57.93
62057;BME280;48016;50.284;18.860;2023-09-12T07:28:17;97972.28;;;26.68;57.62
62057;BME280;48016;50.284;18.860;2023-09-12T07:30:47;97976.73;;;26.78;56.54
62057;BME280;48016;50.284;18.860;2023-09-12T07:33:14;97978.92;;;26.86;56.19
62057;BME280;48016;50.284;18.860;2023-09-12T07:35:41;97980.61;;;26.96;55.96
62057;BME280;48016;50.284;18.860;2023-09-12T07:38:08;97981.42;;;27.08;56.78
62057;BME280;48016;50.284;18.860;2023-09-12T07:40:34;97983.66;;;27.14;56.22
62057;BME280;48016;50.284;18.860;2023-09-12T07:43:01;97985.31;;;27.17;55.73
62057;BME280;48016;50.284;18.860;2023-09-12T07:45:29;97985.84;;;27.24;55.85
62057;BME280;48016;50.284;18.860;2023-09-12T07:47:57;97985.84;;;27.25;55.34
62057;BME280;48016;50.284;18.860;2023-09-12T07:50:24;97985.58;;;27.23;54.68
62057;BME280;48016;50.284;18.860;2023-09-12T07:52:51;97986.02;;;27.25;55.13
62057;BME280;48016;50.284;18.860;2023-09-12T07:55:17;97981.30;;;27.28;54.58
62057;BME280;48016;50.284;18.860;2023-09-12T07:57:44;97980.80;;;27.32;54.42
62057;BME280;48016;50.284;18.860;2023-09-12T08:00:12;97982.82;;;27.40;54.79
62057;BME280;48016;50.284;18.860;2023-09-12T08:02:39;97980.62;;;27.42;53.51
62057;BME280;48016;50.284;18.860;2023-09-12T08:05:07;97978.41;;;27.42;53.97
62057;BME280;48016;50.284;18.860;2023-09-12T08:07:35;97973.95;;;27.46;54.23
62057;BME280;48016;50.284;18.860;2023-09-12T08:10:02;97975.27;;;27.55;53.85
62057;BME280;48016;50.284;18.860;2023-09-12T08:12:29;97976.94;;;27.62;53.70
62057;BME280;48016;50.284;18.860;2023-09-12T08:14:56;97975.02;;;27.66;53.13
62057;BME280;48016;50.284;18.860;2023-09-12T08:17:23;97973.67;;;27.66;53.83
62057;BME280;48016;50.284;18.860;2023-09-12T08:19:49;97977.88;;;27.67;54.00
62057;BME280;48016;50.284;18.860;2023-09-12T08:22:16;97975.13;;;27.63;52.28
62057;BME280;48016;50.284;18.860;2023-09-12T08:24:43;97975.11;;;27.57;52.86
62057;BME280;48016;50.284;18.860;2023-09-12T08:27:10;97973.73;;;27.53;52.99
62057;BME280;48016;50.284;18.860;2023-09-12T08:29:36;97973.00;;;27.53;52.90
62057;BME280;48016;50.284;18.860;2023-09-12T08:32:03;97970.79;;;27.54;52.67
62057;BME280;48016;50.284;18.860;2023-09-12T08:34:30;97969.92;;;27.48;52.00
62057;BME280;48016;50.284;18.860;2023-09-12T08:36:57;97972.35;;;27.45;51.88
62057;BME280;48016;50.284;18.860;2023-09-12T08:39:24;97977.43;;;27.45;52.86
62057;BME280;48016;50.284;18.860;2023-09-12T08:41:52;97975.77;;;27.45;53.40
62057;BME280;48016;50.284;18.860;2023-09-12T08:44:20;97976.50;;;27.47;53.92
62057;BME280;48016;50.284;18.860;2023-09-12T08:46:48;97973.23;;;27.46;53.40
62057;BME280;48016;50.284;18.860;2023-09-12T08:49:15;97970.49;;;27.43;53.22
62057;BME280;48016;50.284;18.860;2023-09-12T08:51:43;97971.30;;;27.44;53.03
62057;BME280;48016;50.284;18.860;2023-09-12T08:54:11;97970.04;;;27.44;53.36
62057;BME280;48016;50.284;18.860;2023-09-12T08:56:39;97972.15;;;27.48;54.11
62057;BME280;48016;50.284;18.860;2023-09-12T08:59:08;97971.95;;;27.50;53.96
62057;BME280;48016;50.284;18.860;2023-09-12T09:01:37;97970.31;;;27.48;53.72
62057;BME280;48016;50.284;18.860;2023-09-12T09:04:05;97972.17;;;27.49;53.62
62057;BME280;48016;50.284;18.860;2023-09-12T09:06:32;97972.50;;;27.50;53.16
62057;BME280;48016;50.284;18.860;2023-09-12T09:09:07;97969.17;;;27.50;52.99
62057;BME280;48016;50.284;18.860;2023-09-12T09:11:34;97970.13;;;27.50;51.73
62057;BME280;48016;50.284;18.860;2023-09-12T09:14:04;97968.77;;;27.50;51.70
62057;BME280;48016;50.284;18.860;2023-09-12T09:16:31;97969.24;;;27.51;51.92
62057;BME280;48016;50.284;18.860;2023-09-12T09:19:00;97964.39;;;27.55;51.67
62057;BME280;48016;50.284;18.860;2023-09-12T09:21:32;97963.39;;;27.58;51.35
62057;BME280;48016;50.284;18.860;2023-09-12T09:24:06;97960.59;;;27.55;51.06
62057;BME280;48016;50.284;18.860;2023-09-12T09:26:47;97961.79;;;27.56;51.04
62057;BME280;48016;50.284;18.860;2023-09-12T09:29:22;97956.05;;;27.54;51.09
62057;BME280;48016;50.284;18.860;2023-09-12T09:31:51;97956.15;;;27.56;51.59
62057;BME280;48016;50.284;18.860;2023-09-12T09:34:20;97956.52;;;27.60;51.07
62057;BME280;48016;50.284;18.860;2023-09-12T09:36:52;97954.03;;;27.64;51.44
62057;BME280;48016;50.284;18.860;2023-09-12T09:39:21;97954.66;;;27.69;51.58
62057;BME280;48016;50.284;18.860;2023-09-12T09:41:50;97955.85;;;27.76;51.40
62057;BME280;48016;50.284;18.860;2023-09-12T09:44:17;97954.16;;;27.79;51.49
62057;BME280;48016;50.284;18.860;2023-09-12T09:46:45;97953.25;;;27.80;51.46
62057;BME280;48016;50.284;18.860;2023-09-12T09:49:16;97957.29;;;27.79;50.99
62057;BME280;48016;50.284;18.860;2023-09-12T09:51:46;97957.83;;;27.79;51.14
62057;BME280;48016;50.284;18.860;2023-09-12T09:54:14;97954.17;;;27.79;51.18
62057;BME280;48016;50.284;18.860;2023-09-12T09:56:53;97951.81;;;27.80;51.41
62057;BME280;48016;50.284;18.860;2023-09-12T09:59:27;97950.09;;;27.81;51.40
62057;BME280;48016;50.284;18.860;2023-09-12T10:01:58;97948.65;;;27.81;51.41
62057;BME280;48016;50.284;18.860;2023-09-12T10:04:27;97949.61;;;27.77;51.37
62057;BME280;48016;50.284;18.860;2023-09-12T10:06:56;97953.15;;;27.79;51.75
62057;BME280;48016;50.284;18.860;2023-09-12T10:09:26;97954.90;;;27.85;51.87
62057;BME280;48016;50.284;18.860;2023-09-12T10:11:55;97950.73;;;27.88;50.53
62057;BME280;48016;50.284;18.860;2023-09-12T10:14:23;97946.11;;;27.88;50.71
62057;BME280;48016;50.284;18.860;2023-09-12T10:16:57;97944.71;;;27.90;50.71
62057;BME280;48016;50.284;18.860;2023-09-12T10:19:32;97941.34;;;27.92;50.53
62057;BME280;48016;50.284;18.860;2023-09-12T10:22:07;97940.36;;;27.98;50.42
62057;BME280;48016;50.284;18.860;2023-09-12T10:24:37;97939.11;;;27.99;49.72
62057;BME280;48016;50.284;18.860;2023-09-12T10:27:05;97938.20;;;28.04;49.87
62057;BME280;48016;50.284;18.860;2023-09-12T10:29:33;97941.69;;;28.10;50.10
62057;BME280;48016;50.284;18.860;2023-09-12T10:32:00;97942.79;;;28.16;49.69
62057;BME280;48016;50.284;18.860;2023-09-12T10:34:30;97941.63;;;28.19;48.22
62057;BME280;48016;50.284;18.860;2023-09-12T10:36:58;97937.88;;;28.17;48.15
62057;BME280;48016;50.284;18.860;2023-09-12T10:39:32;97933.02;;;28.15;48.53
62057;BME280;48016;50.284;18.860;2023-09-12T10:41:59;97934.89;;;28.12;48.67
62057;BME280;48016;50.284;18.860;2023-09-12T10:44:25;97936.73;;;28.13;48.34
62057;BME280;48016;50.284;18.860;2023-09-12T10:46:53;97934.11;;;28.13;48.13
62057;BME280;48016;50.284;18.860;2023-09-12T10:49:22;97935.98;;;28.18;47.93
62057;BME280;48016;50.284;18.860;2023-09-12T10:51:50;97935.41;;;28.24;47.83
62057;BME280;48016;50.284;18.860;2023-09-12T10:54:25;97935.73;;;28.24;47.07
62057;BME280;48016;50.284;18.860;2023-09-12T10:57:08;97932.79;;;28.23;47.23
62057;BME280;48016;50.284;18.860;2023-09-12T11:02:34;97934.84;;;28.29;46.82
62057;BME280;48016;50.284;18.860;2023-09-12T11:05:04;97935.59;;;28.32;46.76
62057;BME280;48016;50.284;18.860;2023-09-12T11:10:16;97931.00;;;28.35;46.59
62057;BME280;48016;50.284;18.860;2023-09-12T11:12:55;97931.91;;;28.37;46.80
62057;BME280;48016;50.284;18.860;2023-09-12T11:15:25;97929.83;;;28.42;46.62
62057;BME280;48016;50.284;18.860;2023-09-12T11:18:03;97930.39;;;28.43;46.09
62057;BME280;48016;50.284;18.860;2023-09-12T11:20:50;97931.42;;;28.44;45.93
62057;BME280;48016;50.284;18.860;2023-09-12T11:23:19;97929.95;;;28.46;45.56
62057;BME280;48016;50.284;18.860;2023-09-12T11:25:46;97928.64;;;28.50;45.19
62057;BME280;48016;50.284;18.860;2023-09-12T11:28:13;97929.21;;;28.54;45.35
62057;BME280;48016;50.284;18.860;2023-09-12T11:30:55;97928.60;;;28.55;45.33
62057;BME280;48016;50.284;18.860;2023-09-12T11:33:24;97924.64;;;28.56;44.93
62057;BME280;48016;50.284;18.860;2023-09-12T11:35:53;97923.91;;;28.55;44.61
62057;BME280;48016;50.284;18.860;2023-09-12T11:38:28;97927.58;;;28.56;44.30
62057;BME280;48016;50.284;18.860;2023-09-12T11:40:57;97923.45;;;28.56;44.06
62057;BME280;48016;50.284;18.860;2023-09-12T11:43:25;97920.66;;;28.57;44.51
62057;BME280;48016;50.284;18.860;2023-09-12T11:45:53;97919.66;;;28.59;45.03
62057;BME280;48016;50.284;18.860;2023-09-12T11:48:20;97918.09;;;28.61;44.75
62057;BME280;48016;50.284;18.860;2023-09-12T11:50:53;97918.39;;;28.61;44.55
62057;BME280;48016;50.284;18.860;2023-09-12T11:53:22;97916.52;;;28.62;44.31
62057;BME280;48016;50.284;18.860;2023-09-12T11:55:57;97916.12;;;28.63;43.83
62057;BME280;48016;50.284;18.860;2023-09-12T11:58:25;97913.75;;;28.65;44.03
62057;BME280;48016;50.284;18.860;2023-09-12T12:00:57;97912.91;;;28.67;44.01
62057;BME280;48016;50.284;18.860;2023-09-12T12:03:26;97909.42;;;28.70;43.61
62057;BME280;48016;50.284;18.860;2023-09-12T12:05:56;97905.45;;;28.72;43.96
62057;BME280;48016;50.284;18.860;2023-09-12T12:08:24;97905.39;;;28.71;44.47
62057;BME280;48016;50.284;18.860;2023-09-12T12:10:52;97907.50;;;28.68;44.48
62057;BME280;48016;50.284;18.860;2023-09-12T12:13:20;97908.50;;;28.65;44.25
62057;BME280;48016;50.284;18.860;2023-09-12T12:15:48;97904.76;;;28.63;44.70
62057;BME280;48016;50.284;18.860;2023-09-12T12:18:15;97904.44;;;28.63;44.60
62057;BME280;48016;50.284;18.860;2023-09-12T12:20:42;97902.95;;;28.66;44.22
62057;BME280;48016;50.284;18.860;2023-09-12T12:23:09;97900.65;;;28.66;44.36
62057;BME280;48016;50.284;18.860;2023-09-12T12:25:37;97899.77;;;28.65;44.46
62057;BME280;48016;50.284;18.860;2023-09-12T12:28:04;97899.44;;;28.64;44.56
62057;BME280;48016;50.284;18.860;2023-09-12T12:30:32;97900.64;;;28.65;44.61
62057;BME280;48016;50.284;18.860;2023-09-12T12:33:07;97899.31;;;28.68;44.31
62057;BME280;48016;50.284;18.860;2023-09-12T12:35:34;97896.27;;;28.74;44.23
62057;BME280;48016;50.284;18.860;2023-09-12T12:38:03;97894.00;;;28.80;44.25
62057;BME280;48016;50.284;18.860;2023-09-12T12:40:30;97890.39;;;28.84;43.57
62057;BME280;48016;50.284;18.860;2023-09-12T12:42:57;97889.23;;;28.88;43.63
62057;BME280;48016;50.284;18.860;2023-09-12T12:45:23;97889.06;;;28.89;43.73
62057;BME280;48016;50.284;18.860;2023-09-12T12:48:00;97894.02;;;28.84;43.67
62057;BME280;48016;50.284;18.860;2023-09-12T12:50:27;97891.65;;;28.83;43.87
62057;BME280;48016;50.284;18.860;2023-09-12T12:52:54;97894.33;;;28.81;43.83
62057;BME280;48016;50.284;18.860;2023-09-12T12:55:21;97891.80;;;28.81;43.63
62057;BME280;48016;50.284;18.860;2023-09-12T12:57:52;97888.35;;;28.79;43.69
62057;BME280;48016;50.284;18.860;2023-09-12T13:00:18;97883.23;;;28.74;43.43
62057;BME280;48016;50.284;18.860;2023-09-12T13:02:45;97883.30;;;28.73;43.45
62057;BME280;48016;50.284;18.860;2023-09-12T13:05:27;97883.03;;;28.69;42.85
62057;BME280;48016;50.284;18.860;2023-09-12T13:07:54;97886.45;;;28.69;43.34